Weather History for Rockingham, NC

Change the Weather History Date:

Friday, October 5, 2012

  Actual Average (KHFF) Record (KHFF)
Temperature  
Mean Temperature 70 °F -  
Max Temperature 93 °F 73 °F 88 °F (2013)
Min Temperature 61 °F 54 °F 44 °F (2011)
Cooling Degree Days 5    
Growing Degree Days 20 (Base 50)    
Moisture  
Dew Point 62 °F    
Average Humidity 83    
Maximum Humidity 100    
Minimum Humidity 44    
Precipitation  
Precipitation 0.00 in - - ()
Sea Level Pressure  
Sea Level Pressure 30.12 in    
Wind  
Wind Speed 1 mph (SSE)    
Max Wind Speed 7 mph    
Max Gust Speed -    
Visibility 8 miles    
Events Fog    
Averages and records for this station are not official NWS values.
T = Trace of Precipitation, MM = Missing Value Source: NWS Daily Summary

Daily Weather History Graph

Daily Weather History Graph

Search for Another Location

Airport:

Trip Planner

Search our weather history database for the weather conditions in past years. The results will help you decide how hot, cold, wet, or windy it might be!

Date:

Astronomy

Oct. 05, 2012 Rise Set
Actual Time 7:17 AM EDT 6:56 PM EDT
Civil Twilight 6:51 AM EDT 7:22 PM EDT
Nautical Twilight 6:22 AM EDT 7:51 PM EDT
Astronomical Twilight 5:53 AM EDT 8:20 PM EDT
Moon 10:29 PM EDT (10/5) 12:12 PM EDT (10/5)
Length of Visible Light 12h 30m
Length of Day
11h 39m
Waning Gibbous, 74% of the Moon is Illuminated
Oct 5
Waning Gibbous
Oct 8
Last Quarter
Oct 15
New
Oct 21
First Quarter
Oct 29
Full

Hourly Weather History & Observations

Time (EDT) Temp. Dew Point Humidity Pressure Visibility Wind Dir Wind Speed Gust Speed Precip Events Conditions
12:15 AM 66.7 °F 65.7 °F 96% 30.21 in 10.0 mi South 3.5 mph - N/A   Clear
12:35 AM 66.4 °F 65.5 °F 97% 30.20 in 10.0 mi Calm Calm - N/A   Clear
12:55 AM 65.8 °F 65.3 °F 98% 30.19 in 7.0 mi Calm Calm - N/A   Clear
1:15 AM 65.3 °F 64.9 °F 99% 30.18 in 5.0 mi Calm Calm - N/A   Clear
1:35 AM 65.3 °F 65.1 °F 99% 30.18 in 4.0 mi Calm Calm - N/A   Clear
1:55 AM 65.5 °F 65.5 °F 100% 30.18 in 5.0 mi Calm Calm - N/A   Clear
2:15 AM 65.8 °F 65.8 °F 100% 30.18 in 5.0 mi Calm Calm - N/A   Clear
2:35 AM 65.5 °F 65.5 °F 100% 30.18 in 4.0 mi Calm Calm - N/A   Clear
2:55 AM 64.9 °F 64.9 °F 100% 30.18 in 3.0 mi Calm Calm - N/A   Clear
3:15 AM 64.2 °F 64.2 °F 100% 30.17 in 4.0 mi Calm Calm - N/A   Clear
3:35 AM 64.8 °F 64.8 °F 100% 30.16 in 4.0 mi Calm Calm - N/A   Clear
3:55 AM 64.2 °F 64.2 °F 100% 30.16 in 4.0 mi Calm Calm - N/A   Clear
4:15 AM 64.4 °F 64.4 °F 100% 30.16 in 5.0 mi Calm Calm - N/A   Clear
4:35 AM 64.2 °F 64.2 °F 100% 30.16 in 7.0 mi Calm Calm - N/A   Clear
4:55 AM 63.0 °F 63.0 °F 100% 30.16 in 7.0 mi Calm Calm - N/A   Clear
5:15 AM 63.0 °F 63.0 °F 100% 30.16 in 5.0 mi Calm Calm - N/A   Clear
5:35 AM 64.0 °F 64.0 °F 100% 30.17 in 3.0 mi Calm Calm - N/A   Clear
5:55 AM 63.5 °F 63.5 °F 100% 30.17 in 0.5 mi NNW 3.5 mph - N/A Fog Fog
6:15 AM 62.8 °F 62.8 °F 100% 30.17 in 0.5 mi Calm Calm - N/A Fog Fog
6:35 AM 62.6 °F 62.6 °F 100% 30.17 in 2.5 mi Calm Calm - N/A   Scattered Clouds
6:55 AM 62.6 °F 62.6 °F 100% 30.18 in 4.0 mi Calm Calm - N/A   Clear
7:15 AM 62.1 °F 62.1 °F 100% 30.18 in 4.0 mi Calm Calm - N/A   Clear
7:35 AM 61.7 °F 61.7 °F 100% 30.18 in 3.0 mi Calm Calm - N/A   Clear
7:55 AM 61.7 °F 61.7 °F 100% 30.18 in 4.0 mi North 3.5 mph - N/A   Clear
8:15 AM 61.9 °F 61.9 °F 100% 30.18 in 5.0 mi NNW 3.5 mph - N/A   Clear
8:35 AM 62.2 °F 62.2 °F 100% 30.18 in 7.0 mi Calm Calm - N/A   Clear
8:55 AM 62.6 °F 62.6 °F 100% 30.18 in 7.0 mi Calm Calm - N/A   Clear
9:15 AM 63.0 °F 62.6 °F 99% 30.18 in 10.0 mi Calm Calm - N/A   Clear
9:35 AM 64.4 °F 62.1 °F 92% 30.18 in 10.0 mi NNE 3.5 mph - N/A   Clear
9:55 AM 65.1 °F 61.3 °F 88% 30.19 in 10.0 mi Calm Calm - N/A   Clear
10:15 AM 65.3 °F 61.7 °F 88% 30.18 in 10.0 mi Calm Calm - N/A   Clear
10:35 AM 65.3 °F 61.7 °F 88% 30.18 in 10.0 mi Calm Calm - N/A   Clear
10:55 AM 65.7 °F 61.9 °F 88% 30.18 in 10.0 mi Calm Calm - N/A   Clear
11:15 AM 66.4 °F 62.4 °F 87% 30.17 in 10.0 mi Calm Calm - N/A   Clear
11:35 AM 66.9 °F 62.4 °F 85% 30.17 in 10.0 mi Calm Calm - N/A   Clear
11:55 AM 67.6 °F 62.6 °F 84% 30.16 in 10.0 mi Calm Calm - N/A   Clear
12:35 PM 70.5 °F 62.2 °F 75% 30.16 in 10.0 mi East 3.5 mph - N/A   Clear
12:55 PM 71.6 °F 62.1 °F 72% 30.15 in 10.0 mi Calm Calm - N/A   Clear
1:15 PM 72.9 °F 61.2 °F 67% 30.14 in 10.0 mi East 4.6 mph - N/A   Clear
1:35 PM 73.9 °F 60.3 °F 62% 30.13 in 10.0 mi Calm Calm - N/A   Clear
1:55 PM 74.5 °F 58.8 °F 58% 30.12 in 10.0 mi East 3.5 mph - N/A   Clear
2:35 PM 77.2 °F 56.7 °F 49% 30.11 in 10.0 mi Calm Calm - N/A   Clear
2:55 PM 78.3 °F 57.6 °F 49% 30.10 in 10.0 mi Calm Calm - N/A   Clear
3:15 PM 79.0 °F 57.6 °F 48% 30.09 in 10.0 mi Calm Calm - N/A   Clear
3:35 PM 79.3 °F 56.7 °F 46% 30.08 in 10.0 mi Calm Calm - N/A   Clear
3:55 PM 79.7 °F 56.5 °F 45% 30.08 in 10.0 mi Calm Calm - N/A   Clear
4:15 PM 79.7 °F 56.7 °F 45% 30.07 in 10.0 mi SW 5.8 mph - N/A   Clear
4:35 PM 79.7 °F 56.1 °F 44% 30.06 in 10.0 mi SSE 3.5 mph - N/A   Clear
4:55 PM 79.9 °F 56.1 °F 44% 30.05 in 10.0 mi Calm Calm - N/A   Clear
5:15 PM 79.9 °F 57.7 °F 47% 30.05 in 10.0 mi South 6.9 mph - N/A   Clear
5:35 PM 79.2 °F 58.8 °F 50% 30.05 in 10.0 mi South 5.8 mph - N/A   Clear
5:55 PM 78.3 °F 59.2 °F 52% 30.05 in 10.0 mi South 5.8 mph - N/A   Clear
6:15 PM 77.4 °F 60.4 °F 56% 30.05 in 10.0 mi South 4.6 mph - N/A   Clear
6:35 PM 75.9 °F 60.8 °F 59% 30.05 in 10.0 mi South 3.5 mph - N/A   Clear
7:15 PM 72.7 °F 61.5 °F 68% 30.05 in 10.0 mi South 3.5 mph - N/A   Clear
7:35 PM 71.8 °F 61.5 °F 70% 30.05 in 10.0 mi South 3.5 mph - N/A   Clear
7:55 PM 71.2 °F 61.7 °F 72% 30.04 in 10.0 mi Calm Calm - N/A   Clear
8:15 PM 70.5 °F 61.9 °F 74% 30.04 in 10.0 mi Calm Calm - N/A   Clear
8:35 PM 69.3 °F 61.9 °F 77% 30.05 in 10.0 mi Calm Calm - N/A   Clear
8:55 PM 68.0 °F 61.9 °F 81% 30.05 in 10.0 mi Calm Calm - N/A   Clear
9:15 PM 68.5 °F 62.4 °F 81% 30.05 in 10.0 mi SSW 3.5 mph - N/A   Clear
9:35 PM 67.8 °F 62.6 °F 83% 30.05 in 10.0 mi Calm Calm - N/A   Clear
9:55 PM 66.6 °F 62.6 °F 87% 30.05 in 10.0 mi Calm Calm - N/A   Clear
10:15 PM 64.8 °F 62.6 °F 93% 30.05 in 10.0 mi Calm Calm - N/A   Clear
10:35 PM 65.1 °F 63.0 °F 93% 30.05 in 10.0 mi Calm Calm - N/A   Clear
10:55 PM 65.5 °F 63.0 °F 92% 30.04 in 10.0 mi Calm Calm - N/A   Clear
11:15 PM 65.1 °F 62.4 °F 91% 30.04 in 10.0 mi Calm Calm - N/A   Clear
11:35 PM 65.1 °F 62.4 °F 91% 30.04 in 10.0 mi Calm Calm - N/A   Clear
11:55 PM 64.9 °F 62.2 °F 91% 30.03 in 10.0 mi Calm Calm - N/A   Clear